sensor_id;sensor_type;location;lat;lon;timestamp;P1;P2;P0
39955;PMS5003;25631;51.516;-0.470;2023-04-01T00:00:06;10;9;
39955;PMS5003;25631;51.516;-0.470;2023-04-01T00:02:43;8;8;
39955;PMS5003;25631;51.516;-0.470;2023-04-01T00:05:19;9;8;
39955;PMS5003;25631;51.516;-0.470;2023-04-01T00:07:56;9;8;
39955;PMS5003;25631;51.516;-0.470;2023-04-01T00:10:32;8;8;
39955;PMS5003;25631;51.516;-0.470;2023-04-01T00:13:09;8;8;
39955;PMS5003;25631;51.516;-0.470;2023-04-01T00:15:47;8;8;
39955;PMS5003;25631;51.516;-0.470;2023-04-01T00:18:24;8;8;
39955;PMS5003;25631;51.516;-0.470;2023-04-01T00:21:01;7;7;
39955;PMS5003;25631;51.516;-0.470;2023-04-01T00:23:38;9;9;
39955;PMS5003;25631;51.516;-0.470;2023-04-01T00:26:14;9;9;
39955;PMS5003;25631;51.516;-0.470;2023-04-01T00:28:51;9;9;
39955;PMS5003;25631;51.516;-0.470;2023-04-01T00:31:27;9;9;
39955;PMS5003;25631;51.516;-0.470;2023-04-01T00:34:04;11;8;
39955;PMS5003;25631;51.516;-0.470;2023-04-01T00:36:40;11;8;
39955;PMS5003;25631;51.516;-0.470;2023-04-01T00:39:17;11;8;
39955;PMS5003;25631;51.516;-0.470;2023-04-01T00:41:54;11;8;
39955;PMS5003;25631;51.516;-0.470;2023-04-01T00:44:31;11;8;
39955;PMS5003;25631;51.516;-0.470;2023-04-01T00:47:09;9;7;
39955;PMS5003;25631;51.516;-0.470;2023-04-01T00:49:46;8;8;
39955;PMS5003;25631;51.516;-0.470;2023-04-01T00:52:25;9;8;
39955;PMS5003;25631;51.516;-0.470;2023-04-01T00:55:03;9;8;
39955;PMS5003;25631;51.516;-0.470;2023-04-01T00:57:42;10;9;
39955;PMS5003;25631;51.516;-0.470;2023-04-01T01:00:21;11;10;
39955;PMS5003;25631;51.516;-0.470;2023-04-01T01:02:58;11;10;
39955;PMS5003;25631;51.516;-0.470;2023-04-01T01:05:38;10;9;
39955;PMS5003;25631;51.516;-0.470;2023-04-01T01:08:33;9;8;
39955;PMS5003;25631;51.516;-0.470;2023-04-01T01:11:23;8;7;
39955;PMS5003;25631;51.516;-0.470;2023-04-01T01:14:10;6;5;
39955;PMS5003;25631;51.516;-0.470;2023-04-01T01:16:58;14;11;
39955;PMS5003;25631;51.516;-0.470;2023-04-01T01:19:48;14;12;
39955;PMS5003;25631;51.516;-0.470;2023-04-01T01:22:44;10;9;
39955;PMS5003;25631;51.516;-0.470;2023-04-01T01:25:35;9;8;
39955;PMS5003;25631;51.516;-0.470;2023-04-01T01:28:24;9;8;
39955;PMS5003;25631;51.516;-0.470;2023-04-01T01:31:11;9;8;
39955;PMS5003;25631;51.516;-0.470;2023-04-01T01:33:58;9;8;
39955;PMS5003;25631;51.516;-0.470;2023-04-01T01:36:48;9;8;
39955;PMS5003;25631;51.516;-0.470;2023-04-01T01:39:30;8;8;
39955;PMS5003;25631;51.516;-0.470;2023-04-01T01:42:11;8;8;
39955;PMS5003;25631;51.516;-0.470;2023-04-01T01:44:51;6;6;
39955;PMS5003;25631;51.516;-0.470;2023-04-01T01:47:30;6;6;
39955;PMS5003;25631;51.516;-0.470;2023-04-01T01:50:07;6;6;
39955;PMS5003;25631;51.516;-0.470;2023-04-01T01:52:45;7;7;
39955;PMS5003;25631;51.516;-0.470;2023-04-01T01:55:24;7;6;
39955;PMS5003;25631;51.516;-0.470;2023-04-01T01:58:05;8;7;
39955;PMS5003;25631;51.516;-0.470;2023-04-01T02:00:49;8;7;
39955;PMS5003;25631;51.516;-0.470;2023-04-01T02:03:29;9;6;
39955;PMS5003;25631;51.516;-0.470;2023-04-01T02:06:09;9;7;
39955;PMS5003;25631;51.516;-0.470;2023-04-01T02:08:50;9;7;
39955;PMS5003;25631;51.516;-0.470;2023-04-01T02:11:30;7;6;
39955;PMS5003;25631;51.516;-0.470;2023-04-01T02:14:13;9;8;
39955;PMS5003;25631;51.516;-0.470;2023-04-01T02:16:53;8;8;
39955;PMS5003;25631;51.516;-0.470;2023-04-01T02:19:35;9;8;
39955;PMS5003;25631;51.516;-0.470;2023-04-01T02:22:16;9;9;
39955;PMS5003;25631;51.516;-0.470;2023-04-01T02:24:57;10;9;
39955;PMS5003;25631;51.516;-0.470;2023-04-01T02:27:37;9;8;
39955;PMS5003;25631;51.516;-0.470;2023-04-01T02:30:14;10;9;
39955;PMS5003;25631;51.516;-0.470;2023-04-01T02:32:52;8;8;
39955;PMS5003;25631;51.516;-0.470;2023-04-01T02:35:31;8;7;
39955;PMS5003;25631;51.516;-0.470;2023-04-01T02:38:09;8;7;
39955;PMS5003;25631;51.516;-0.470;2023-04-01T02:40:46;7;6;
39955;PMS5003;25631;51.516;-0.470;2023-04-01T02:43:24;6;5;
39955;PMS5003;25631;51.516;-0.470;2023-04-01T02:46:01;8;7;
39955;PMS5003;25631;51.516;-0.470;2023-04-01T02:48:38;8;7;
39955;PMS5003;25631;51.516;-0.470;2023-04-01T02:51:15;9;8;
39955;PMS5003;25631;51.516;-0.470;2023-04-01T02:53:51;9;8;
39955;PMS5003;25631;51.516;-0.470;2023-04-01T02:56:28;9;8;
39955;PMS5003;25631;51.516;-0.470;2023-04-01T02:59:05;8;8;
39955;PMS5003;25631;51.516;-0.470;2023-04-01T03:01:41;8;8;
39955;PMS5003;25631;51.516;-0.470;2023-04-01T03:04:18;8;8;
39955;PMS5003;25631;51.516;-0.470;2023-04-01T03:06:55;8;8;
39955;PMS5003;25631;51.516;-0.470;2023-04-01T03:09:31;8;8;
39955;PMS5003;25631;51.516;-0.470;2023-04-01T03:12:08;10;7;
39955;PMS5003;25631;51.516;-0.470;2023-04-01T03:14:44;12;9;
39955;PMS5003;25631;51.516;-0.470;2023-04-01T03:17:20;11;8;
39955;PMS5003;25631;51.516;-0.470;2023-04-01T03:19:57;14;12;
39955;PMS5003;25631;51.516;-0.470;2023-04-01T03:22:34;13;12;
39955;PMS5003;25631;51.516;-0.470;2023-04-01T03:25:10;10;9;
39955;PMS5003;25631;51.516;-0.470;2023-04-01T03:27:47;10;10;
39955;PMS5003;25631;51.516;-0.470;2023-04-01T03:30:24;8;8;
39955;PMS5003;25631;51.516;-0.470;2023-04-01T03:33:02;8;8;
39955;PMS5003;25631;51.516;-0.470;2023-04-01T03:35:38;6;6;
39955;PMS5003;25631;51.516;-0.470;2023-04-01T03:38:15;6;6;
39955;PMS5003;25631;51.516;-0.470;2023-04-01T03:40:51;6;6;
39955;PMS5003;25631;51.516;-0.470;2023-04-01T03:43:28;7;7;
39955;PMS5003;25631;51.516;-0.470;2023-04-01T03:46:04;7;7;
39955;PMS5003;25631;51.516;-0.470;2023-04-01T03:48:41;8;8;
39955;PMS5003;25631;51.516;-0.470;2023-04-01T03:51:18;8;8;
39955;PMS5003;25631;51.516;-0.470;2023-04-01T03:53:54;8;8;
39955;PMS5003;25631;51.516;-0.470;2023-04-01T03:56:31;10;10;
39955;PMS5003;25631;51.516;-0.470;2023-04-01T03:59:08;9;9;
39955;PMS5003;25631;51.516;-0.470;2023-04-01T04:01:46;10;10;
39955;PMS5003;25631;51.516;-0.470;2023-04-01T04:04:22;9;9;
39955;PMS5003;25631;51.516;-0.470;2023-04-01T04:06:59;8;8;
39955;PMS5003;25631;51.516;-0.470;2023-04-01T04:09:35;7;7;
39955;PMS5003;25631;51.516;-0.470;2023-04-01T04:12:12;6;6;
39955;PMS5003;25631;51.516;-0.470;2023-04-01T04:14:48;6;6;
39955;PMS5003;25631;51.516;-0.470;2023-04-01T04:17:25;7;6;
39955;PMS5003;25631;51.516;-0.470;2023-04-01T04:20:02;7;6;
39955;PMS5003;25631;51.516;-0.470;2023-04-01T04:22:39;6;5;
39955;PMS5003;25631;51.516;-0.470;2023-04-01T04:25:16;7;7;
39955;PMS5003;25631;51.516;-0.470;2023-04-01T04:27:52;7;7;
39955;PMS5003;25631;51.516;-0.470;2023-04-01T04:30:30;7;6;
39955;PMS5003;25631;51.516;-0.470;2023-04-01T04:33:06;7;6;
39955;PMS5003;25631;51.516;-0.470;2023-04-01T04:35:43;9;8;
39955;PMS5003;25631;51.516;-0.470;2023-04-01T04:38:19;10;9;
39955;PMS5003;25631;51.516;-0.470;2023-04-01T04:40:56;11;10;
39955;PMS5003;25631;51.516;-0.470;2023-04-01T04:43:33;10;10;
39955;PMS5003;25631;51.516;-0.470;2023-04-01T04:46:10;10;10;
39955;PMS5003;25631;51.516;-0.470;2023-04-01T04:48:46;12;10;
39955;PMS5003;25631;51.516;-0.470;2023-04-01T04:51:23;11;10;
39955;PMS5003;25631;51.516;-0.470;2023-04-01T04:54:00;11;9;
39955;PMS5003;25631;51.516;-0.470;2023-04-01T04:56:36;11;9;
39955;PMS5003;25631;51.516;-0.470;2023-04-01T04:59:13;13;9;
39955;PMS5003;25631;51.516;-0.470;2023-04-01T05:01:49;12;9;
39955;PMS5003;25631;51.516;-0.470;2023-04-01T05:04:25;11;8;
39955;PMS5003;25631;51.516;-0.470;2023-04-01T05:07:02;11;8;
39955;PMS5003;25631;51.516;-0.470;2023-04-01T05:09:39;11;8;
39955;PMS5003;25631;51.516;-0.470;2023-04-01T05:12:16;7;7;
39955;PMS5003;25631;51.516;-0.470;2023-04-01T05:14:52;8;6;
39955;PMS5003;25631;51.516;-0.470;2023-04-01T05:17:29;8;7;
39955;PMS5003;25631;51.516;-0.470;2023-04-01T05:20:06;8;7;
39955;PMS5003;25631;51.516;-0.470;2023-04-01T05:22:43;8;6;
39955;PMS5003;25631;51.516;-0.470;2023-04-01T05:25:20;8;7;
39955;PMS5003;25631;51.516;-0.470;2023-04-01T05:27:56;6;6;
39955;PMS5003;25631;51.516;-0.470;2023-04-01T05:30:33;7;6;
39955;PMS5003;25631;51.516;-0.470;2023-04-01T05:33:10;8;6;
39955;PMS5003;25631;51.516;-0.470;2023-04-01T05:35:48;10;8;
39955;PMS5003;25631;51.516;-0.470;2023-04-01T05:38:24;9;7;
39955;PMS5003;25631;51.516;-0.470;2023-04-01T05:41:01;9;8;
39955;PMS5003;25631;51.516;-0.470;2023-04-01T05:43:39;8;8;
39955;PMS5003;25631;51.516;-0.470;2023-04-01T05:46:16;9;8;
39955;PMS5003;25631;51.516;-0.470;2023-04-01T05:48:53;9;8;
39955;PMS5003;25631;51.516;-0.470;2023-04-01T05:51:30;10;8;
39955;PMS5003;25631;51.516;-0.470;2023-04-01T05:54:06;12;10;
39955;PMS5003;25631;51.516;-0.470;2023-04-01T05:56:43;12;11;
39955;PMS5003;25631;51.516;-0.470;2023-04-01T05:59:20;9;9;
39955;PMS5003;25631;51.516;-0.470;2023-04-01T06:01:56;9;9;
39955;PMS5003;25631;51.516;-0.470;2023-04-01T06:04:34;9;9;
39955;PMS5003;25631;51.516;-0.470;2023-04-01T06:07:15;10;9;
39955;PMS5003;25631;51.516;-0.470;2023-04-01T06:09:58;10;9;
39955;PMS5003;25631;51.516;-0.470;2023-04-01T06:12:39;9;8;
39955;PMS5003;25631;51.516;-0.470;2023-04-01T06:15:24;9;7;
39955;PMS5003;25631;51.516;-0.470;2023-04-01T06:18:13;8;7;
39955;PMS5003;25631;51.516;-0.470;2023-04-01T06:21:05;8;7;
39955;PMS5003;25631;51.516;-0.470;2023-04-01T06:23:57;9;7;
39955;PMS5003;25631;51.516;-0.470;2023-04-01T06:26:44;10;8;
39955;PMS5003;25631;51.516;-0.470;2023-04-01T06:29:32;9;8;
39955;PMS5003;25631;51.516;-0.470;2023-04-01T06:32:23;10;9;
39955;PMS5003;25631;51.516;-0.470;2023-04-01T06:35:19;9;9;
39955;PMS5003;25631;51.516;-0.470;2023-04-01T06:38:09;9;9;
39955;PMS5003;25631;51.516;-0.470;2023-04-01T06:41:06;10;9;
39955;PMS5003;25631;51.516;-0.470;2023-04-01T06:43:59;10;9;
39955;PMS5003;25631;51.516;-0.470;2023-04-01T06:46:51;10;9;
39955;PMS5003;25631;51.516;-0.470;2023-04-01T06:49:35;11;10;
39955;PMS5003;25631;51.516;-0.470;2023-04-01T06:52:25;12;10;
39955;PMS5003;25631;51.516;-0.470;2023-04-01T06:55:16;11;10;
39955;PMS5003;25631;51.516;-0.470;2023-04-01T06:58:00;10;9;
39955;PMS5003;25631;51.516;-0.470;2023-04-01T07:00:42;7;6;
39955;PMS5003;25631;51.516;-0.470;2023-04-01T07:03:23;9;8;
39955;PMS5003;25631;51.516;-0.470;2023-04-01T07:06:09;10;8;
39955;PMS5003;25631;51.516;-0.470;2023-04-01T07:08:50;8;7;
39955;PMS5003;25631;51.516;-0.470;2023-04-01T07:11:31;8;6;
39955;PMS5003;25631;51.516;-0.470;2023-04-01T07:14:12;10;7;
39955;PMS5003;25631;51.516;-0.470;2023-04-01T07:16:56;11;9;
39955;PMS5003;25631;51.516;-0.470;2023-04-01T07:19:42;11;9;
39955;PMS5003;25631;51.516;-0.470;2023-04-01T07:22:25;13;11;
39955;PMS5003;25631;51.516;-0.470;2023-04-01T07:25:11;11;10;
39955;PMS5003;25631;51.516;-0.470;2023-04-01T07:27:49;11;11;
39955;PMS5003;25631;51.516;-0.470;2023-04-01T07:30:28;10;9;
39955;PMS5003;25631;51.516;-0.470;2023-04-01T07:33:16;9;9;
39955;PMS5003;25631;51.516;-0.470;2023-04-01T07:35:59;10;10;
39955;PMS5003;25631;51.516;-0.470;2023-04-01T07:38:46;8;8;
39955;PMS5003;25631;51.516;-0.470;2023-04-01T07:41:37;8;8;
39955;PMS5003;25631;51.516;-0.470;2023-04-01T07:44:26;7;7;
39955;PMS5003;25631;51.516;-0.470;2023-04-01T07:47:15;6;6;
39955;PMS5003;25631;51.516;-0.470;2023-04-01T07:50:05;5;5;
39955;PMS5003;25631;51.516;-0.470;2023-04-01T07:52:49;8;8;
39955;PMS5003;25631;51.516;-0.470;2023-04-01T07:55:33;7;7;
39955;PMS5003;25631;51.516;-0.470;2023-04-01T07:58:16;7;7;
39955;PMS5003;25631;51.516;-0.470;2023-04-01T08:01:04;8;8;
39955;PMS5003;25631;51.516;-0.470;2023-04-01T08:03:57;7;7;
39955;PMS5003;25631;51.516;-0.470;2023-04-01T08:06:56;7;7;
39955;PMS5003;25631;51.516;-0.470;2023-04-01T08:09:40;8;8;
39955;PMS5003;25631;51.516;-0.470;2023-04-01T08:12:27;8;8;
39955;PMS5003;25631;51.516;-0.470;2023-04-01T08:15:19;9;8;
39955;PMS5003;25631;51.516;-0.470;2023-04-01T08:18:02;11;10;
39955;PMS5003;25631;51.516;-0.470;2023-04-01T08:20:46;13;13;
39955;PMS5003;25631;51.516;-0.470;2023-04-01T08:23:27;13;13;
39955;PMS5003;25631;51.516;-0.470;2023-04-01T08:26:08;10;10;
39955;PMS5003;25631;51.516;-0.470;2023-04-01T08:28:50;9;8;
39955;PMS5003;25631;51.516;-0.470;2023-04-01T08:31:34;9;8;
39955;PMS5003;25631;51.516;-0.470;2023-04-01T08:34:16;10;8;
39955;PMS5003;25631;51.516;-0.470;2023-04-01T08:36:58;9;8;
39955;PMS5003;25631;51.516;-0.470;2023-04-01T08:39:39;9;8;
39955;PMS5003;25631;51.516;-0.470;2023-04-01T08:42:55;9;8;
39955;PMS5003;25631;51.516;-0.470;2023-04-01T08:45:48;8;7;
39955;PMS5003;25631;51.516;-0.470;2023-04-01T08:48:43;9;8;
39955;PMS5003;25631;51.516;-0.470;2023-04-01T08:51:53;8;8;
39955;PMS5003;25631;51.516;-0.470;2023-04-01T08:54:46;8;8;
39955;PMS5003;25631;51.516;-0.470;2023-04-01T08:57:42;8;8;
39955;PMS5003;25631;51.516;-0.470;2023-04-01T09:00:30;6;6;
39955;PMS5003;25631;51.516;-0.470;2023-04-01T09:03:13;6;6;
39955;PMS5003;25631;51.516;-0.470;2023-04-01T09:06:22;8;7;
39955;PMS5003;25631;51.516;-0.470;2023-04-01T09:09:18;9;7;
39955;PMS5003;25631;51.516;-0.470;2023-04-01T09:12:49;9;7;
39955;PMS5003;25631;51.516;-0.470;2023-04-01T09:15:37;10;7;
39955;PMS5003;25631;51.516;-0.470;2023-04-01T09:18:32;10;8;
39955;PMS5003;25631;51.516;-0.470;2023-04-01T09:21:25;8;7;
39955;PMS5003;25631;51.516;-0.470;2023-04-01T09:24:16;10;10;
39955;PMS5003;25631;51.516;-0.470;2023-04-01T09:27:05;11;11;
39955;PMS5003;25631;51.516;-0.470;2023-04-01T09:29:53;10;9;
39955;PMS5003;25631;51.516;-0.470;2023-04-01T09:34:22;12;11;
39955;PMS5003;25631;51.516;-0.470;2023-04-01T09:37:17;10;10;
39955;PMS5003;25631;51.516;-0.470;2023-04-01T09:40:02;9;9;
39955;PMS5003;25631;51.516;-0.470;2023-04-01T09:42:56;9;9;
39955;PMS5003;25631;51.516;-0.470;2023-04-01T09:45:55;11;10;
39955;PMS5003;25631;51.516;-0.470;2023-04-01T09:48:50;11;11;
39955;PMS5003;25631;51.516;-0.470;2023-04-01T09:51:37;12;10;
39955;PMS5003;25631;51.516;-0.470;2023-04-01T09:54:27;11;10;
39955;PMS5003;25631;51.516;-0.470;2023-04-01T09:57:29;11;9;
39955;PMS5003;25631;51.516;-0.470;2023-04-01T10:00:01;9;9;
39955;PMS5003;25631;51.516;-0.470;2023-04-01T10:02:27;9;9;
39955;PMS5003;25631;51.516;-0.470;2023-04-01T10:05:22;9;9;
39955;PMS5003;25631;51.516;-0.470;2023-04-01T10:08:18;9;9;
39955;PMS5003;25631;51.516;-0.470;2023-04-01T10:11:15;9;8;
39955;PMS5003;25631;51.516;-0.470;2023-04-01T10:14:16;8;7;
39955;PMS5003;25631;51.516;-0.470;2023-04-01T10:19:33;8;7;
39955;PMS5003;25631;51.516;-0.470;2023-04-01T10:22:30;10;8;
39955;PMS5003;25631;51.516;-0.470;2023-04-01T10:25:29;11;10;
39955;PMS5003;25631;51.516;-0.470;2023-04-01T10:27:49;11;9;
39955;PMS5003;25631;51.516;-0.470;2023-04-01T10:30:56;12;10;
39955;PMS5003;25631;51.516;-0.470;2023-04-01T10:33:54;11;9;
39955;PMS5003;25631;51.516;-0.470;2023-04-01T10:36:53;11;9;
39955;PMS5003;25631;51.516;-0.470;2023-04-01T10:39:34;12;10;
39955;PMS5003;25631;51.516;-0.470;2023-04-01T10:41:57;11;10;
39955;PMS5003;25631;51.516;-0.470;2023-04-01T10:44:55;10;9;
39955;PMS5003;25631;51.516;-0.470;2023-04-01T10:48:01;10;9;
39955;PMS5003;25631;51.516;-0.470;2023-04-01T10:51:16;12;10;
39955;PMS5003;25631;51.516;-0.470;2023-04-01T10:54:11;11;9;
39955;PMS5003;25631;51.516;-0.470;2023-04-01T10:56:55;14;11;
39955;PMS5003;25631;51.516;-0.470;2023-04-01T10:59:43;14;11;
39955;PMS5003;25631;51.516;-0.470;2023-04-01T11:03:06;13;10;
39955;PMS5003;25631;51.516;-0.470;2023-04-01T11:06:54;11;9;
39955;PMS5003;25631;51.516;-0.470;2023-04-01T11:13:35;8;8;
39955;PMS5003;25631;51.516;-0.470;2023-04-01T11:18:50;8;7;
39955;PMS5003;25631;51.516;-0.470;2023-04-01T11:21:59;7;7;
39955;PMS5003;25631;51.516;-0.470;2023-04-01T11:25:17;8;7;
39955;PMS5003;25631;51.516;-0.470;2023-04-01T11:28:11;10;10;
39955;PMS5003;25631;51.516;-0.470;2023-04-01T11:31:03;11;9;
39955;PMS5003;25631;51.516;-0.470;2023-04-01T11:33:54;12;10;
39955;PMS5003;25631;51.516;-0.470;2023-04-01T11:36:40;10;9;
39955;PMS5003;25631;51.516;-0.470;2023-04-01T11:39:30;11;9;
39955;PMS5003;25631;51.516;-0.470;2023-04-01T11:42:17;10;8;
39955;PMS5003;25631;51.516;-0.470;2023-04-01T11:45:03;11;9;
39955;PMS5003;25631;51.516;-0.470;2023-04-01T11:47:56;9;7;
39955;PMS5003;25631;51.516;-0.470;2023-04-01T11:50:50;11;9;
39955;PMS5003;25631;51.516;-0.470;2023-04-01T11:53:43;9;8;
39955;PMS5003;25631;51.516;-0.470;2023-04-01T11:56:32;8;8;
39955;PMS5003;25631;51.516;-0.470;2023-04-01T11:59:31;9;9;
39955;PMS5003;25631;51.516;-0.470;2023-04-01T12:02:20;11;10;
39955;PMS5003;25631;51.516;-0.470;2023-04-01T12:05:24;10;10;
39955;PMS5003;25631;51.516;-0.470;2023-04-01T12:08:16;12;10;
39955;PMS5003;25631;51.516;-0.470;2023-04-01T12:11:05;10;9;
39955;PMS5003;25631;51.516;-0.470;2023-04-01T12:13:52;9;8;
39955;PMS5003;25631;51.516;-0.470;2023-04-01T12:16:39;10;9;
39955;PMS5003;25631;51.516;-0.470;2023-04-01T12:19:25;11;10;
39955;PMS5003;25631;51.516;-0.470;2023-04-01T12:22:19;11;10;
39955;PMS5003;25631;51.516;-0.470;2023-04-01T12:25:06;14;13;
39955;PMS5003;25631;51.516;-0.470;2023-04-01T12:28:00;13;12;
39955;PMS5003;25631;51.516;-0.470;2023-04-01T12:30:51;12;10;
39955;PMS5003;25631;51.516;-0.470;2023-04-01T12:33:37;12;10;
39955;PMS5003;25631;51.516;-0.470;2023-04-01T12:36:33;10;9;
39955;PMS5003;25631;51.516;-0.470;2023-04-01T12:39:22;9;9;
39955;PMS5003;25631;51.516;-0.470;2023-04-01T12:42:17;10;10;
39955;PMS5003;25631;51.516;-0.470;2023-04-01T12:45:16;9;9;
39955;PMS5003;25631;51.516;-0.470;2023-04-01T12:48:08;9;7;
39955;PMS5003;25631;51.516;-0.470;2023-04-01T12:51:22;10;8;
39955;PMS5003;25631;51.516;-0.470;2023-04-01T12:54:18;9;8;
39955;PMS5003;25631;51.516;-0.470;2023-04-01T12:57:31;10;8;
39955;PMS5003;25631;51.516;-0.470;2023-04-01T13:00:25;10;8;
39955;PMS5003;25631;51.516;-0.470;2023-04-01T13:03:18;9;8;
39955;PMS5003;25631;51.516;-0.470;2023-04-01T13:07:16;10;8;
39955;PMS5003;25631;51.516;-0.470;2023-04-01T13:10:06;11;9;
39955;PMS5003;25631;51.516;-0.470;2023-04-01T13:12:55;11;9;
39955;PMS5003;25631;51.516;-0.470;2023-04-01T13:15:40;11;9;
39955;PMS5003;25631;51.516;-0.470;2023-04-01T13:18:28;10;10;
39955;PMS5003;25631;51.516;-0.470;2023-04-01T13:21:13;9;9;
39955;PMS5003;25631;51.516;-0.470;2023-04-01T13:23:55;9;9;
39955;PMS5003;25631;51.516;-0.470;2023-04-01T13:26:44;10;10;
39955;PMS5003;25631;51.516;-0.470;2023-04-01T13:29:32;13;12;
39955;PMS5003;25631;51.516;-0.470;2023-04-01T13:32:17;13;11;
39955;PMS5003;25631;51.516;-0.470;2023-04-01T13:35:02;17;15;
39955;PMS5003;25631;51.516;-0.470;2023-04-01T13:37:54;23;23;
39955;PMS5003;25631;51.516;-0.470;2023-04-01T13:40:43;26;25;
39955;PMS5003;25631;51.516;-0.470;2023-04-01T13:43:29;25;23;
39955;PMS5003;25631;51.516;-0.470;2023-04-01T13:46:16;19;18;
39955;PMS5003;25631;51.516;-0.470;2023-04-01T13:49:12;15;15;
39955;PMS5003;25631;51.516;-0.470;2023-04-01T13:53:16;16;15;
39955;PMS5003;25631;51.516;-0.470;2023-04-01T13:56:13;13;13;
39955;PMS5003;25631;51.516;-0.470;2023-04-01T13:59:04;14;13;
39955;PMS5003;25631;51.516;-0.470;2023-04-01T14:01:56;16;13;
39955;PMS5003;25631;51.516;-0.470;2023-04-01T14:04:43;17;13;
39955;PMS5003;25631;51.516;-0.470;2023-04-01T14:07:35;16;13;
39955;PMS5003;25631;51.516;-0.470;2023-04-01T14:10:27;18;14;
39955;PMS5003;25631;51.516;-0.470;2023-04-01T14:13:18;16;12;
39955;PMS5003;25631;51.516;-0.470;2023-04-01T14:16:06;14;13;
39955;PMS5003;25631;51.516;-0.470;2023-04-01T14:19:03;14;12;
39955;PMS5003;25631;51.516;-0.470;2023-04-01T14:21:57;12;11;
39955;PMS5003;25631;51.516;-0.470;2023-04-01T14:24:45;10;10;
39955;PMS5003;25631;51.516;-0.470;2023-04-01T14:27:38;10;10;
39955;PMS5003;25631;51.516;-0.470;2023-04-01T14:30:27;9;9;
39955;PMS5003;25631;51.516;-0.470;2023-04-01T14:33:22;7;7;
39955;PMS5003;25631;51.516;-0.470;2023-04-01T14:36:13;7;7;
39955;PMS5003;25631;51.516;-0.470;2023-04-01T14:39:08;9;9;
39955;PMS5003;25631;51.516;-0.470;2023-04-01T14:41:58;8;8;
39955;PMS5003;25631;51.516;-0.470;2023-04-01T14:45:08;9;9;
39955;PMS5003;25631;51.516;-0.470;2023-04-01T14:48:16;13;10;
39955;PMS5003;25631;51.516;-0.470;2023-04-01T14:51:08;12;9;
39955;PMS5003;25631;51.516;-0.470;2023-04-01T14:53:58;13;10;
39955;PMS5003;25631;51.516;-0.470;2023-04-01T14:56:40;14;10;
39955;PMS5003;25631;51.516;-0.470;2023-04-01T14:59:25;11;9;
39955;PMS5003;25631;51.516;-0.470;2023-04-01T15:02:08;10;9;
39955;PMS5003;25631;51.516;-0.470;2023-04-01T15:05:05;8;7;
39955;PMS5003;25631;51.516;-0.470;2023-04-01T15:08:08;8;7;
39955;PMS5003;25631;51.516;-0.470;2023-04-01T15:10:53;8;8;
39955;PMS5003;25631;51.516;-0.470;2023-04-01T15:13:54;8;7;
39955;PMS5003;25631;51.516;-0.470;2023-04-01T15:16:41;9;8;
39955;PMS5003;25631;51.516;-0.470;2023-04-01T15:19:31;9;9;
39955;PMS5003;25631;51.516;-0.470;2023-04-01T15:22:26;10;10;
39955;PMS5003;25631;51.516;-0.470;2023-04-01T15:25:21;12;12;
39955;PMS5003;25631;51.516;-0.470;2023-04-01T15:28:14;11;11;
39955;PMS5003;25631;51.516;-0.470;2023-04-01T15:31:00;13;11;
39955;PMS5003;25631;51.516;-0.470;2023-04-01T15:33:48;12;10;
39955;PMS5003;25631;51.516;-0.470;2023-04-01T15:36:37;11;9;
39955;PMS5003;25631;51.516;-0.470;2023-04-01T15:39:19;9;8;
39955;PMS5003;25631;51.516;-0.470;2023-04-01T15:42:10;8;8;
39955;PMS5003;25631;51.516;-0.470;2023-04-01T15:44:58;7;7;
39955;PMS5003;25631;51.516;-0.470;2023-04-01T15:47:44;7;7;
39955;PMS5003;25631;51.516;-0.470;2023-04-01T15:50:48;8;8;
39955;PMS5003;25631;51.516;-0.470;2023-04-01T15:54:51;8;8;
39955;PMS5003;25631;51.516;-0.470;2023-04-01T15:57:39;10;9;
39955;PMS5003;25631;51.516;-0.470;2023-04-01T16:00:25;10;9;
39955;PMS5003;25631;51.516;-0.470;2023-04-01T16:03:24;10;8;
39955;PMS5003;25631;51.516;-0.470;2023-04-01T16:06:12;9;8;
39955;PMS5003;25631;51.516;-0.470;2023-04-01T16:09:00;7;7;
39955;PMS5003;25631;51.516;-0.470;2023-04-01T16:11:47;6;6;
39955;PMS5003;25631;51.516;-0.470;2023-04-01T16:14:31;7;6;
39955;PMS5003;25631;51.516;-0.470;2023-04-01T16:17:24;7;6;
39955;PMS5003;25631;51.516;-0.470;2023-04-01T16:20:14;7;5;
39955;PMS5003;25631;51.516;-0.470;2023-04-01T16:22:55;8;7;
39955;PMS5003;25631;51.516;-0.470;2023-04-01T16:25:39;8;7;
39955;PMS5003;25631;51.516;-0.470;2023-04-01T16:28:19;8;7;
39955;PMS5003;25631;51.516;-0.470;2023-04-01T16:31:04;8;8;
39955;PMS5003;25631;51.516;-0.470;2023-04-01T16:33:46;8;8;
39955;PMS5003;25631;51.516;-0.470;2023-04-01T16:36:28;7;7;
39955;PMS5003;25631;51.516;-0.470;2023-04-01T16:39:11;7;7;
39955;PMS5003;25631;51.516;-0.470;2023-04-01T16:42:08;7;7;
39955;PMS5003;25631;51.516;-0.470;2023-04-01T16:44:53;8;7;
39955;PMS5003;25631;51.516;-0.470;2023-04-01T16:47:35;9;9;
39955;PMS5003;25631;51.516;-0.470;2023-04-01T16:50:18;11;11;
39955;PMS5003;25631;51.516;-0.470;2023-04-01T16:52:59;11;10;
39955;PMS5003;25631;51.516;-0.470;2023-04-01T16:55:45;12;11;
39955;PMS5003;25631;51.516;-0.470;2023-04-01T16:58:26;10;10;
39955;PMS5003;25631;51.516;-0.470;2023-04-01T17:01:12;11;11;
39955;PMS5003;25631;51.516;-0.470;2023-04-01T17:03:57;10;10;
39955;PMS5003;25631;51.516;-0.470;2023-04-01T17:06:41;9;9;
39955;PMS5003;25631;51.516;-0.470;2023-04-01T17:09:29;9;9;
39955;PMS5003;25631;51.516;-0.470;2023-04-01T17:12:17;8;7;
39955;PMS5003;25631;51.516;-0.470;2023-04-01T17:15:01;8;7;
39955;PMS5003;25631;51.516;-0.470;2023-04-01T17:17:49;10;9;
39955;PMS5003;25631;51.516;-0.470;2023-04-01T17:20:34;9;8;
39955;PMS5003;25631;51.516;-0.470;2023-04-01T17:23:20;8;7;
39955;PMS5003;25631;51.516;-0.470;2023-04-01T17:26:06;8;7;
39955;PMS5003;25631;51.516;-0.470;2023-04-01T17:28:52;9;8;
39955;PMS5003;25631;51.516;-0.470;2023-04-01T17:31:42;9;8;
39955;PMS5003;25631;51.516;-0.470;2023-04-01T17:34:29;10;8;
39955;PMS5003;25631;51.516;-0.470;2023-04-01T17:37:23;10;9;
39955;PMS5003;25631;51.516;-0.470;2023-04-01T17:40:17;11;9;
39955;PMS5003;25631;51.516;-0.470;2023-04-01T17:43:07;12;9;
39955;PMS5003;25631;51.516;-0.470;2023-04-01T17:45:53;11;8;
39955;PMS5003;25631;51.516;-0.470;2023-04-01T17:48:36;11;8;
39955;PMS5003;25631;51.516;-0.470;2023-04-01T17:51:24;11;8;
39955;PMS5003;25631;51.516;-0.470;2023-04-01T17:54:14;11;8;
39955;PMS5003;25631;51.516;-0.470;2023-04-01T17:57:03;10;8;
39955;PMS5003;25631;51.516;-0.470;2023-04-01T17:59:59;10;7;
39955;PMS5003;25631;51.516;-0.470;2023-04-01T18:02:54;10;7;
39955;PMS5003;25631;51.516;-0.470;2023-04-01T18:05:43;10;7;
39955;PMS5003;25631;51.516;-0.470;2023-04-01T18:08:51;8;7;
39955;PMS5003;25631;51.516;-0.470;2023-04-01T18:11:39;8;8;
39955;PMS5003;25631;51.516;-0.470;2023-04-01T18:15:30;8;7;
39955;PMS5003;25631;51.516;-0.470;2023-04-01T18:18:18;8;8;
39955;PMS5003;25631;51.516;-0.470;2023-04-01T18:21:13;10;9;
39955;PMS5003;25631;51.516;-0.470;2023-04-01T18:23:58;10;9;
39955;PMS5003;25631;51.516;-0.470;2023-04-01T18:26:39;10;10;
39955;PMS5003;25631;51.516;-0.470;2023-04-01T18:29:24;9;8;
39955;PMS5003;25631;51.516;-0.470;2023-04-01T18:32:12;11;9;
39955;PMS5003;25631;51.516;-0.470;2023-04-01T18:34:59;11;9;
39955;PMS5003;25631;51.516;-0.470;2023-04-01T18:37:50;11;9;
39955;PMS5003;25631;51.516;-0.470;2023-04-01T18:40:33;10;7;
39955;PMS5003;25631;51.516;-0.470;2023-04-01T18:43:16;9;7;